sensor_id;sensor_type;location;lat;lon;timestamp;temperature;humidity
65864;SHT30;52639;51.180;20.460;2022-12-07T00:00:26;0.57;99.10
65864;SHT30;52639;51.180;20.460;2022-12-07T00:04:43;0.55;99.15
65864;SHT30;52639;51.180;20.460;2022-12-07T00:08:47;0.52;99.05
65864;SHT30;52639;51.180;20.460;2022-12-07T00:12:51;0.48;98.98
65864;SHT30;52639;51.180;20.460;2022-12-07T00:16:54;0.48;99.14
65864;SHT30;52639;51.180;20.460;2022-12-07T00:20:59;0.50;99.10
65864;SHT30;52639;51.180;20.460;2022-12-07T00:25:03;0.48;99.10
65864;SHT30;52639;51.180;20.460;2022-12-07T00:29:14;0.45;99.17
65864;SHT30;52639;51.180;20.460;2022-12-07T00:33:17;0.48;99.17
65864;SHT30;52639;51.180;20.460;2022-12-07T00:37:20;0.47;99.22
65864;SHT30;52639;51.180;20.460;2022-12-07T00:41:24;0.45;99.15
65864;SHT30;52639;51.180;20.460;2022-12-07T00:45:28;0.44;99.18
65864;SHT30;52639;51.180;20.460;2022-12-07T00:49:33;0.42;99.09
65864;SHT30;52639;51.180;20.460;2022-12-07T00:53:37;0.44;99.13
65864;SHT30;52639;51.180;20.460;2022-12-07T00:57:42;0.42;99.16
65864;SHT30;52639;51.180;20.460;2022-12-07T01:01:46;0.44;99.14
65864;SHT30;52639;51.180;20.460;2022-12-07T01:05:50;0.44;99.12
65864;SHT30;52639;51.180;20.460;2022-12-07T01:09:53;0.44;99.16
65864;SHT30;52639;51.180;20.460;2022-12-07T01:13:58;0.42;99.18
65864;SHT30;52639;51.180;20.460;2022-12-07T01:18:02;0.42;99.21
65864;SHT30;52639;51.180;20.460;2022-12-07T01:22:05;0.41;99.01
65864;SHT30;52639;51.180;20.460;2022-12-07T01:26:11;0.44;99.09
65864;SHT30;52639;51.180;20.460;2022-12-07T01:30:14;0.42;99.09
65864;SHT30;52639;51.180;20.460;2022-12-07T01:34:18;0.44;99.18
65864;SHT30;52639;51.180;20.460;2022-12-07T01:38:21;0.44;99.04
65864;SHT30;52639;51.180;20.460;2022-12-07T01:42:24;0.45;99.05
65864;SHT30;52639;51.180;20.460;2022-12-07T01:46:27;0.42;99.10
65864;SHT30;52639;51.180;20.460;2022-12-07T01:50:31;0.41;99.00
65864;SHT30;52639;51.180;20.460;2022-12-07T01:54:35;0.38;99.01
65864;SHT30;52639;51.180;20.460;2022-12-07T01:58:38;0.40;99.06
65864;SHT30;52639;51.180;20.460;2022-12-07T02:02:44;0.40;99.25
65864;SHT30;52639;51.180;20.460;2022-12-07T02:06:50;0.37;99.20
65864;SHT30;52639;51.180;20.460;2022-12-07T02:10:54;0.36;99.07
65864;SHT30;52639;51.180;20.460;2022-12-07T02:14:57;0.34;99.17
65864;SHT30;52639;51.180;20.460;2022-12-07T02:19:18;0.37;99.06
65864;SHT30;52639;51.180;20.460;2022-12-07T02:23:52;0.38;99.02
65864;SHT30;52639;51.180;20.460;2022-12-07T02:28:05;0.37;99.01
65864;SHT30;52639;51.180;20.460;2022-12-07T02:32:16;0.36;99.09
65864;SHT30;52639;51.180;20.460;2022-12-07T02:36:24;0.38;99.17
65864;SHT30;52639;51.180;20.460;2022-12-07T02:40:32;0.40;99.16
65864;SHT30;52639;51.180;20.460;2022-12-07T02:44:36;0.38;99.03
65864;SHT30;52639;51.180;20.460;2022-12-07T02:48:41;0.38;99.04
65864;SHT30;52639;51.180;20.460;2022-12-07T02:52:45;0.40;98.94
65864;SHT30;52639;51.180;20.460;2022-12-07T02:56:50;0.37;99.00
65864;SHT30;52639;51.180;20.460;2022-12-07T03:01:02;0.37;99.00
65864;SHT30;52639;51.180;20.460;2022-12-07T03:05:15;0.40;98.98
65864;SHT30;52639;51.180;20.460;2022-12-07T03:09:30;0.40;99.08
65864;SHT30;52639;51.180;20.460;2022-12-07T03:13:38;0.38;99.05
65864;SHT30;52639;51.180;20.460;2022-12-07T03:17:45;0.38;99.02
65864;SHT30;52639;51.180;20.460;2022-12-07T03:21:54;0.38;99.03
65864;SHT30;52639;51.180;20.460;2022-12-07T03:26:00;0.38;99.08
65864;SHT30;52639;51.180;20.460;2022-12-07T03:30:05;0.40;99.11
65864;SHT30;52639;51.180;20.460;2022-12-07T03:34:14;0.38;99.01
65864;SHT30;52639;51.180;20.460;2022-12-07T03:38:22;0.37;99.18
65864;SHT30;52639;51.180;20.460;2022-12-07T03:42:26;0.38;99.09
65864;SHT30;52639;51.180;20.460;2022-12-07T03:46:35;0.36;99.08
65864;SHT30;52639;51.180;20.460;2022-12-07T03:50:44;0.36;99.11
65864;SHT30;52639;51.180;20.460;2022-12-07T03:54:56;0.37;98.97
65864;SHT30;52639;51.180;20.460;2022-12-07T03:59:01;0.37;99.15
65864;SHT30;52639;51.180;20.460;2022-12-07T04:03:03;0.36;99.08
65864;SHT30;52639;51.180;20.460;2022-12-07T04:07:06;0.37;99.05
65864;SHT30;52639;51.180;20.460;2022-12-07T04:11:11;0.34;99.09
65864;SHT30;52639;51.180;20.460;2022-12-07T04:15:15;0.32;99.00
65864;SHT30;52639;51.180;20.460;2022-12-07T04:19:20;0.36;99.07
65864;SHT30;52639;51.180;20.460;2022-12-07T04:23:23;0.36;99.06
65864;SHT30;52639;51.180;20.460;2022-12-07T04:27:27;0.36;98.98
65864;SHT30;52639;51.180;20.460;2022-12-07T04:31:30;0.37;99.05
65864;SHT30;52639;51.180;20.460;2022-12-07T04:35:33;0.37;99.08
65864;SHT30;52639;51.180;20.460;2022-12-07T04:39:35;0.37;99.06
65864;SHT30;52639;51.180;20.460;2022-12-07T04:43:39;0.36;99.12
65864;SHT30;52639;51.180;20.460;2022-12-07T04:47:42;0.38;99.06
65864;SHT30;52639;51.180;20.460;2022-12-07T04:51:45;0.36;99.06
65864;SHT30;52639;51.180;20.460;2022-12-07T04:55:48;0.36;99.07
65864;SHT30;52639;51.180;20.460;2022-12-07T04:59:52;0.37;99.01
65864;SHT30;52639;51.180;20.460;2022-12-07T05:03:55;0.36;98.98
65864;SHT30;52639;51.180;20.460;2022-12-07T05:07:58;0.37;99.00
65864;SHT30;52639;51.180;20.460;2022-12-07T05:12:00;0.37;98.94
65864;SHT30;52639;51.180;20.460;2022-12-07T05:16:05;0.32;99.01
65864;SHT30;52639;51.180;20.460;2022-12-07T05:20:09;0.32;99.13
65864;SHT30;52639;51.180;20.460;2022-12-07T05:24:13;0.32;99.29
65864;SHT30;52639;51.180;20.460;2022-12-07T05:28:16;0.30;99.20
65864;SHT30;52639;51.180;20.460;2022-12-07T05:32:20;0.32;99.28
65864;SHT30;52639;51.180;20.460;2022-12-07T05:36:23;0.30;99.27
65864;SHT30;52639;51.180;20.460;2022-12-07T05:40:26;0.31;99.23
65864;SHT30;52639;51.180;20.460;2022-12-07T05:44:29;0.32;99.25
65864;SHT30;52639;51.180;20.460;2022-12-07T05:48:33;0.31;99.40
65864;SHT30;52639;51.180;20.460;2022-12-07T05:52:36;0.31;99.33
65864;SHT30;52639;51.180;20.460;2022-12-07T05:56:38;0.31;99.46
65864;SHT30;52639;51.180;20.460;2022-12-07T06:00:41;0.32;99.34
65864;SHT30;52639;51.180;20.460;2022-12-07T06:04:46;0.32;99.29
65864;SHT30;52639;51.180;20.460;2022-12-07T06:08:49;0.31;99.39
65864;SHT30;52639;51.180;20.460;2022-12-07T06:12:52;0.31;99.25
65864;SHT30;52639;51.180;20.460;2022-12-07T06:16:55;0.31;99.38
65864;SHT30;52639;51.180;20.460;2022-12-07T06:20:59;0.30;99.42
65864;SHT30;52639;51.180;20.460;2022-12-07T06:25:02;0.34;99.40
65864;SHT30;52639;51.180;20.460;2022-12-07T06:29:05;0.32;99.26
65864;SHT30;52639;51.180;20.460;2022-12-07T06:33:07;0.34;99.35
65864;SHT30;52639;51.180;20.460;2022-12-07T06:37:12;0.34;99.25
65864;SHT30;52639;51.180;20.460;2022-12-07T06:41:14;0.36;99.28
65864;SHT30;52639;51.180;20.460;2022-12-07T06:45:17;0.37;99.22
65864;SHT30;52639;51.180;20.460;2022-12-07T06:49:20;0.37;99.17
65864;SHT30;52639;51.180;20.460;2022-12-07T06:53:24;0.38;99.18
65864;SHT30;52639;51.180;20.460;2022-12-07T06:57:27;0.38;99.16
65864;SHT30;52639;51.180;20.460;2022-12-07T07:01:29;0.41;99.13
65864;SHT30;52639;51.180;20.460;2022-12-07T07:05:32;0.42;99.21
65864;SHT30;52639;51.180;20.460;2022-12-07T07:09:36;0.44;99.15
65864;SHT30;52639;51.180;20.460;2022-12-07T07:13:39;0.44;99.09
65864;SHT30;52639;51.180;20.460;2022-12-07T07:17:41;0.41;99.22
65864;SHT30;52639;51.180;20.460;2022-12-07T07:21:44;0.45;99.37
65864;SHT30;52639;51.180;20.460;2022-12-07T07:25:48;0.44;99.27
65864;SHT30;52639;51.180;20.460;2022-12-07T07:29:51;0.52;99.20
65864;SHT30;52639;51.180;20.460;2022-12-07T07:33:54;0.52;99.12
65864;SHT30;52639;51.180;20.460;2022-12-07T07:37:57;0.54;99.15
65864;SHT30;52639;51.180;20.460;2022-12-07T07:42:01;0.58;99.15
65864;SHT30;52639;51.180;20.460;2022-12-07T07:46:04;0.62;98.97
65864;SHT30;52639;51.180;20.460;2022-12-07T07:50:07;0.60;98.95
65864;SHT30;52639;51.180;20.460;2022-12-07T07:54:11;0.62;99.02
65864;SHT30;52639;51.180;20.460;2022-12-07T07:58:15;0.64;98.98
65864;SHT30;52639;51.180;20.460;2022-12-07T08:02:19;0.69;98.79
65864;SHT30;52639;51.180;20.460;2022-12-07T08:06:23;0.75;98.89
65864;SHT30;52639;51.180;20.460;2022-12-07T08:10:25;0.78;98.90
65864;SHT30;52639;51.180;20.460;2022-12-07T08:14:30;0.83;98.88
65864;SHT30;52639;51.180;20.460;2022-12-07T08:18:35;0.82;98.73
65864;SHT30;52639;51.180;20.460;2022-12-07T08:22:38;0.89;98.47
65864;SHT30;52639;51.180;20.460;2022-12-07T08:26:40;0.93;98.61
65864;SHT30;52639;51.180;20.460;2022-12-07T08:30:44;0.97;98.48
65864;SHT30;52639;51.180;20.460;2022-12-07T08:34:47;1.06;98.66
65864;SHT30;52639;51.180;20.460;2022-12-07T08:38:51;1.12;98.53
65864;SHT30;52639;51.180;20.460;2022-12-07T08:42:54;1.07;97.89
65864;SHT30;52639;51.180;20.460;2022-12-07T08:47:00;1.09;98.17
65864;SHT30;52639;51.180;20.460;2022-12-07T08:51:04;1.06;98.48
65864;SHT30;52639;51.180;20.460;2022-12-07T08:55:09;1.12;98.37
65864;SHT30;52639;51.180;20.460;2022-12-07T08:59:15;1.10;98.34
65864;SHT30;52639;51.180;20.460;2022-12-07T09:03:21;1.16;98.43
65864;SHT30;52639;51.180;20.460;2022-12-07T09:07:24;1.16;98.38
65864;SHT30;52639;51.180;20.460;2022-12-07T09:11:27;1.20;98.40
65864;SHT30;52639;51.180;20.460;2022-12-07T09:15:30;1.29;98.14
65864;SHT30;52639;51.180;20.460;2022-12-07T09:19:38;1.19;98.11
65864;SHT30;52639;51.180;20.460;2022-12-07T09:23:42;1.17;98.22
65864;SHT30;52639;51.180;20.460;2022-12-07T09:27:45;1.16;97.97
65864;SHT30;52639;51.180;20.460;2022-12-07T09:31:48;1.20;98.13
65864;SHT30;52639;51.180;20.460;2022-12-07T09:35:52;1.20;98.11
65864;SHT30;52639;51.180;20.460;2022-12-07T09:39:55;1.22;97.72
65864;SHT30;52639;51.180;20.460;2022-12-07T09:44:04;1.17;98.14
65864;SHT30;52639;51.180;20.460;2022-12-07T09:48:16;1.25;98.21
65864;SHT30;52639;51.180;20.460;2022-12-07T09:52:27;1.26;97.75
65864;SHT30;52639;51.180;20.460;2022-12-07T09:56:30;1.36;97.95
65864;SHT30;52639;51.180;20.460;2022-12-07T10:00:36;1.44;98.03
65864;SHT30;52639;51.180;20.460;2022-12-07T10:04:39;1.46;97.74
65864;SHT30;52639;51.180;20.460;2022-12-07T10:08:43;1.54;98.38
65864;SHT30;52639;51.180;20.460;2022-12-07T10:12:58;1.71;97.46
65864;SHT30;52639;51.180;20.460;2022-12-07T10:17:01;1.87;97.55
65864;SHT30;52639;51.180;20.460;2022-12-07T10:21:10;1.87;96.83
65864;SHT30;52639;51.180;20.460;2022-12-07T10:25:18;1.85;97.10
65864;SHT30;52639;51.180;20.460;2022-12-07T10:29:22;1.74;97.22
65864;SHT30;52639;51.180;20.460;2022-12-07T10:33:34;1.59;97.77
65864;SHT30;52639;51.180;20.460;2022-12-07T10:37:40;1.49;97.47
65864;SHT30;52639;51.180;20.460;2022-12-07T10:41:55;1.46;97.48
65864;SHT30;52639;51.180;20.460;2022-12-07T10:50:52;1.51;97.41
65864;SHT30;52639;51.180;20.460;2022-12-07T10:55:08;1.47;97.91
65864;SHT30;52639;51.180;20.460;2022-12-07T11:03:54;1.27;98.03
65864;SHT30;52639;51.180;20.460;2022-12-07T11:08:09;1.27;97.67
65864;SHT30;52639;51.180;20.460;2022-12-07T11:12:23;1.29;97.87
65864;SHT30;52639;51.180;20.460;2022-12-07T11:16:47;1.40;97.98
65864;SHT30;52639;51.180;20.460;2022-12-07T11:20:57;1.47;98.05
65864;SHT30;52639;51.180;20.460;2022-12-07T11:25:14;1.95;97.72
65864;SHT30;52639;51.180;20.460;2022-12-07T11:33:59;2.04;96.74
65864;SHT30;52639;51.180;20.460;2022-12-07T11:38:10;1.81;96.46
65864;SHT30;52639;51.180;20.460;2022-12-07T11:42:16;1.73;97.20
65864;SHT30;52639;51.180;20.460;2022-12-07T11:46:24;1.70;97.15
65864;SHT30;52639;51.180;20.460;2022-12-07T11:50:34;1.61;97.36
65864;SHT30;52639;51.180;20.460;2022-12-07T11:54:41;1.50;97.52
65864;SHT30;52639;51.180;20.460;2022-12-07T11:58:48;1.53;97.44
65864;SHT30;52639;51.180;20.460;2022-12-07T12:02:57;1.50;97.21
65864;SHT30;52639;51.180;20.460;2022-12-07T12:07:06;1.59;97.35
65864;SHT30;52639;51.180;20.460;2022-12-07T12:11:24;1.63;97.45
65864;SHT30;52639;51.180;20.460;2022-12-07T12:15:42;1.54;97.29
65864;SHT30;52639;51.180;20.460;2022-12-07T12:20:00;1.50;97.08
65864;SHT30;52639;51.180;20.460;2022-12-07T12:24:11;1.49;97.44
65864;SHT30;52639;51.180;20.460;2022-12-07T12:28:23;1.51;97.46
65864;SHT30;52639;51.180;20.460;2022-12-07T12:32:36;1.35;97.40
65864;SHT30;52639;51.180;20.460;2022-12-07T12:36:45;1.23;97.61
65864;SHT30;52639;51.180;20.460;2022-12-07T12:40:49;1.19;97.89
65864;SHT30;52639;51.180;20.460;2022-12-07T12:45:17;1.16;97.80
65864;SHT30;52639;51.180;20.460;2022-12-07T12:49:34;1.22;97.88
65864;SHT30;52639;51.180;20.460;2022-12-07T12:53:37;1.32;97.78
65864;SHT30;52639;51.180;20.460;2022-12-07T12:57:42;1.30;97.60
65864;SHT30;52639;51.180;20.460;2022-12-07T13:01:46;1.37;97.59
65864;SHT30;52639;51.180;20.460;2022-12-07T13:06:19;1.53;97.39
65864;SHT30;52639;51.180;20.460;2022-12-07T13:10:40;1.60;97.05
65864;SHT30;52639;51.180;20.460;2022-12-07T13:14:55;1.35;97.17
65864;SHT30;52639;51.180;20.460;2022-12-07T13:18:57;1.35;97.77
65864;SHT30;52639;51.180;20.460;2022-12-07T13:23:01;1.37;97.34
65864;SHT30;52639;51.180;20.460;2022-12-07T13:27:07;1.22;97.54
65864;SHT30;52639;51.180;20.460;2022-12-07T13:31:30;1.10;97.79
65864;SHT30;52639;51.180;20.460;2022-12-07T13:35:35;1.07;98.01
65864;SHT30;52639;51.180;20.460;2022-12-07T13:39:46;1.05;97.88
65864;SHT30;52639;51.180;20.460;2022-12-07T13:43:58;1.02;98.05
65864;SHT30;52639;51.180;20.460;2022-12-07T13:48:05;0.99;98.14
65864;SHT30;52639;51.180;20.460;2022-12-07T13:52:15;0.97;98.21
65864;SHT30;52639;51.180;20.460;2022-12-07T13:56:22;0.95;98.15
65864;SHT30;52639;51.180;20.460;2022-12-07T14:00:29;0.92;98.23
65864;SHT30;52639;51.180;20.460;2022-12-07T14:04:35;0.89;98.23
65864;SHT30;52639;51.180;20.460;2022-12-07T14:08:39;0.85;98.29
65864;SHT30;52639;51.180;20.460;2022-12-07T14:12:42;0.88;98.36
65864;SHT30;52639;51.180;20.460;2022-12-07T14:16:58;0.79;98.36
65864;SHT30;52639;51.180;20.460;2022-12-07T14:21:15;0.79;98.40
65864;SHT30;52639;51.180;20.460;2022-12-07T14:25:20;0.76;98.55
65864;SHT30;52639;51.180;20.460;2022-12-07T14:29:32;0.71;98.71
65864;SHT30;52639;51.180;20.460;2022-12-07T14:33:35;0.69;98.78
65864;SHT30;52639;51.180;20.460;2022-12-07T14:37:41;0.71;98.71
65864;SHT30;52639;51.180;20.460;2022-12-07T14:41:44;0.72;98.64
65864;SHT30;52639;51.180;20.460;2022-12-07T14:45:53;0.73;98.86
65864;SHT30;52639;51.180;20.460;2022-12-07T14:49:56;0.76;98.83
65864;SHT30;52639;51.180;20.460;2022-12-07T14:54:01;0.76;98.73
65864;SHT30;52639;51.180;20.460;2022-12-07T14:58:04;0.75;98.69
65864;SHT30;52639;51.180;20.460;2022-12-07T15:02:09;0.78;98.76
65864;SHT30;52639;51.180;20.460;2022-12-07T15:06:14;0.81;98.75
65864;SHT30;52639;51.180;20.460;2022-12-07T15:10:21;0.83;99.04
65864;SHT30;52639;51.180;20.460;2022-12-07T15:14:24;0.82;99.02
65864;SHT30;52639;51.180;20.460;2022-12-07T15:18:27;0.86;98.95
65864;SHT30;52639;51.180;20.460;2022-12-07T15:22:29;0.89;99.01
65864;SHT30;52639;51.180;20.460;2022-12-07T15:26:34;0.83;98.63
65864;SHT30;52639;51.180;20.460;2022-12-07T15:30:37;0.88;98.89
65864;SHT30;52639;51.180;20.460;2022-12-07T15:34:40;0.92;99.03
65864;SHT30;52639;51.180;20.460;2022-12-07T15:38:42;0.97;99.31
65864;SHT30;52639;51.180;20.460;2022-12-07T15:42:47;0.97;99.08
65864;SHT30;52639;51.180;20.460;2022-12-07T15:46:50;1.00;98.95
65864;SHT30;52639;51.180;20.460;2022-12-07T15:50:52;1.05;99.00
65864;SHT30;52639;51.180;20.460;2022-12-07T15:54:55;1.05;99.25
65864;SHT30;52639;51.180;20.460;2022-12-07T15:58:59;1.05;99.26
65864;SHT30;52639;51.180;20.460;2022-12-07T16:03:02;0.93;98.83
65864;SHT30;52639;51.180;20.460;2022-12-07T16:07:07;0.75;98.71
65864;SHT30;52639;51.180;20.460;2022-12-07T16:11:12;0.78;99.06
65864;SHT30;52639;51.180;20.460;2022-12-07T16:15:17;0.66;98.43
65864;SHT30;52639;51.180;20.460;2022-12-07T16:19:20;0.50;98.36
65864;SHT30;52639;51.180;20.460;2022-12-07T16:23:23;0.30;98.12
65864;SHT30;52639;51.180;20.460;2022-12-07T16:27:26;0.34;99.23
65864;SHT30;52639;51.180;20.460;2022-12-07T16:31:30;0.30;99.15
65864;SHT30;52639;51.180;20.460;2022-12-07T16:35:33;0.22;99.05
65864;SHT30;52639;51.180;20.460;2022-12-07T16:39:36;0.21;98.89
65864;SHT30;52639;51.180;20.460;2022-12-07T16:43:39;0.11;98.89
65864;SHT30;52639;51.180;20.460;2022-12-07T16:47:43;0.04;98.97
65864;SHT30;52639;51.180;20.460;2022-12-07T16:51:49;0.00;98.58
65864;SHT30;52639;51.180;20.460;2022-12-07T16:55:51;-0.18;97.99
65864;SHT30;52639;51.180;20.460;2022-12-07T16:59:54;-0.28;98.34
65864;SHT30;52639;51.180;20.460;2022-12-07T17:03:58;-0.37;98.66
65864;SHT30;52639;51.180;20.460;2022-12-07T17:08:02;-0.34;98.73
65864;SHT30;52639;51.180;20.460;2022-12-07T17:12:08;-0.30;98.70
65864;SHT30;52639;51.180;20.460;2022-12-07T17:16:11;-0.28;98.67
65864;SHT30;52639;51.180;20.460;2022-12-07T17:20:15;-0.36;98.88
65864;SHT30;52639;51.180;20.460;2022-12-07T17:24:19;-0.38;98.70
65864;SHT30;52639;51.180;20.460;2022-12-07T17:28:21;-0.33;99.39
65864;SHT30;52639;51.180;20.460;2022-12-07T17:32:27;-0.23;99.55
65864;SHT30;52639;51.180;20.460;2022-12-07T17:36:32;-0.11;99.99
65864;SHT30;52639;51.180;20.460;2022-12-07T17:40:35;-0.07;99.58
65864;SHT30;52639;51.180;20.460;2022-12-07T17:44:38;-0.13;99.32
65864;SHT30;52639;51.180;20.460;2022-12-07T17:48:42;-0.16;99.45
65864;SHT30;52639;51.180;20.460;2022-12-07T17:52:47;-0.18;98.96
65864;SHT30;52639;51.180;20.460;2022-12-07T17:57:07;-0.18;99.17
65864;SHT30;52639;51.180;20.460;2022-12-07T18:01:10;-0.21;99.16
65864;SHT30;52639;51.180;20.460;2022-12-07T18:05:13;-0.36;98.19
65864;SHT30;52639;51.180;20.460;2022-12-07T18:09:19;-0.45;98.10
65864;SHT30;52639;51.180;20.460;2022-12-07T18:13:24;-0.54;98.39
65864;SHT30;52639;51.180;20.460;2022-12-07T18:17:40;-0.48;98.89
65864;SHT30;52639;51.180;20.460;2022-12-07T18:21:44;-0.41;99.70
65864;SHT30;52639;51.180;20.460;2022-12-07T18:25:49;-0.38;98.93
65864;SHT30;52639;51.180;20.460;2022-12-07T18:29:53;-0.33;99.67
65864;SHT30;52639;51.180;20.460;2022-12-07T18:34:00;-0.33;99.23
65864;SHT30;52639;51.180;20.460;2022-12-07T18:38:06;-0.33;99.22
65864;SHT30;52639;51.180;20.460;2022-12-07T18:42:11;-0.31;99.51
65864;SHT30;52639;51.180;20.460;2022-12-07T18:46:16;-0.40;99.10
65864;SHT30;52639;51.180;20.460;2022-12-07T18:50:19;-0.45;98.68
65864;SHT30;52639;51.180;20.460;2022-12-07T18:54:23;-0.56;98.28
65864;SHT30;52639;51.180;20.460;2022-12-07T18:58:29;-0.67;98.18
65864;SHT30;52639;51.180;20.460;2022-12-07T19:02:32;-0.64;99.15
65864;SHT30;52639;51.180;20.460;2022-12-07T19:06:37;-0.65;99.08
65864;SHT30;52639;51.180;20.460;2022-12-07T19:10:43;-0.61;99.09
65864;SHT30;52639;51.180;20.460;2022-12-07T19:14:49;-0.71;98.92
65864;SHT30;52639;51.180;20.460;2022-12-07T19:18:55;-0.81;98.84
65864;SHT30;52639;51.180;20.460;2022-12-07T19:23:00;-0.72;99.39
65864;SHT30;52639;51.180;20.460;2022-12-07T19:27:04;-0.74;99.04
65864;SHT30;52639;51.180;20.460;2022-12-07T19:31:10;-0.78;98.98
65864;SHT30;52639;51.180;20.460;2022-12-07T19:35:19;-0.89;98.89
65864;SHT30;52639;51.180;20.460;2022-12-07T19:39:25;-0.93;98.49
65864;SHT30;52639;51.180;20.460;2022-12-07T19:43:32;-0.95;98.88
65864;SHT30;52639;51.180;20.460;2022-12-07T19:47:40;-1.02;98.51
65864;SHT30;52639;51.180;20.460;2022-12-07T19:51:47;-1.09;98.30
65864;SHT30;52639;51.180;20.460;2022-12-07T19:55:51;-1.12;98.55
65864;SHT30;52639;51.180;20.460;2022-12-07T19:59:58;-1.16;98.46
65864;SHT30;52639;51.180;20.460;2022-12-07T20:04:07;-1.32;98.00
65864;SHT30;52639;51.180;20.460;2022-12-07T20:08:14;-1.28;98.20
65864;SHT30;52639;51.180;20.460;2022-12-07T20:12:17;-1.26;98.53
65864;SHT30;52639;51.180;20.460;2022-12-07T20:16:39;-1.29;99.04
65864;SHT30;52639;51.180;20.460;2022-12-07T20:20:53;-1.22;98.82
65864;SHT30;52639;51.180;20.460;2022-12-07T20:24:59;-1.29;98.13
65864;SHT30;52639;51.180;20.460;2022-12-07T20:29:05;-1.38;98.58
65864;SHT30;52639;51.180;20.460;2022-12-07T20:33:08;-1.35;99.09
65864;SHT30;52639;51.180;20.460;2022-12-07T20:37:14;-1.38;98.90
65864;SHT30;52639;51.180;20.460;2022-12-07T20:41:18;-1.50;98.19
65864;SHT30;52639;51.180;20.460;2022-12-07T20:45:43;-1.49;98.53
65864;SHT30;52639;51.180;20.460;2022-12-07T20:49:47;-1.49;98.10
65864;SHT30;52639;51.180;20.460;2022-12-07T20:53:53;-1.49;98.23
65864;SHT30;52639;51.180;20.460;2022-12-07T20:57:56;-1.56;98.05
65864;SHT30;52639;51.180;20.460;2022-12-07T21:01:59;-1.42;99.13
65864;SHT30;52639;51.180;20.460;2022-12-07T21:06:03;-1.42;98.55
65864;SHT30;52639;51.180;20.460;2022-12-07T21:10:09;-1.49;98.31
65864;SHT30;52639;51.180;20.460;2022-12-07T21:14:12;-1.53;97.92
65864;SHT30;52639;51.180;20.460;2022-12-07T21:18:15;-1.40;98.95
65864;SHT30;52639;51.180;20.460;2022-12-07T21:22:18;-1.40;98.46
65864;SHT30;52639;51.180;20.460;2022-12-07T21:26:23;-1.44;98.41
65864;SHT30;52639;51.180;20.460;2022-12-07T21:30:26;-1.66;97.67
65864;SHT30;52639;51.180;20.460;2022-12-07T21:34:29;-1.74;97.75
65864;SHT30;52639;51.180;20.460;2022-12-07T21:38:32;-1.64;98.93
65864;SHT30;52639;51.180;20.460;2022-12-07T21:42:36;-1.49;99.02
65864;SHT30;52639;51.180;20.460;2022-12-07T21:46:39;-1.38;99.09
65864;SHT30;52639;51.180;20.460;2022-12-07T21:50:42;-1.46;98.14
65864;SHT30;52639;51.180;20.460;2022-12-07T21:54:46;-1.53;98.07
65864;SHT30;52639;51.180;20.460;2022-12-07T21:58:51;-1.47;98.61
65864;SHT30;52639;51.180;20.460;2022-12-07T22:02:54;-1.38;98.27
65864;SHT30;52639;51.180;20.460;2022-12-07T22:06:57;-1.36;98.17
65864;SHT30;52639;51.180;20.460;2022-12-07T22:11:01;-1.33;98.85
65864;SHT30;52639;51.180;20.460;2022-12-07T22:15:08;-1.29;98.57
65864;SHT30;52639;51.180;20.460;2022-12-07T22:19:11;-1.19;99.16
65864;SHT30;52639;51.180;20.460;2022-12-07T22:23:14;-1.16;98.85
65864;SHT30;52639;51.180;20.460;2022-12-07T22:27:17;-1.22;98.24
65864;SHT30;52639;51.180;20.460;2022-12-07T22:31:21;-1.33;97.81
65864;SHT30;52639;51.180;20.460;2022-12-07T22:35:24;-1.32;98.39
65864;SHT30;52639;51.180;20.460;2022-12-07T22:39:27;-1.39;98.28
65864;SHT30;52639;51.180;20.460;2022-12-07T22:43:30;-1.44;98.11
65864;SHT30;52639;51.180;20.460;2022-12-07T22:47:34;-1.42;98.45
65864;SHT30;52639;51.180;20.460;2022-12-07T22:51:39;-1.42;98.76
65864;SHT30;52639;51.180;20.460;2022-12-07T22:55:44;-1.38;99.11
65864;SHT30;52639;51.180;20.460;2022-12-07T22:59:47;-1.40;98.65
65864;SHT30;52639;51.180;20.460;2022-12-07T23:03:52;-1.40;98.70
65864;SHT30;52639;51.180;20.460;2022-12-07T23:07:54;-1.36;99.06
65864;SHT30;52639;51.180;20.460;2022-12-07T23:11:57;-1.38;98.67
65864;SHT30;52639;51.180;20.460;2022-12-07T23:16:18;-1.44;98.48
65864;SHT30;52639;51.180;20.460;2022-12-07T23:20:22;-1.33;98.76
65864;SHT30;52639;51.180;20.460;2022-12-07T23:24:25;-1.13;99.15
65864;SHT30;52639;51.180;20.460;2022-12-07T23:28:28;-1.08;99.37
65864;SHT30;52639;51.180;20.460;2022-12-07T23:32:30;-1.03;99.28
65864;SHT30;52639;51.180;20.460;2022-12-07T23:36:35;-0.99;99.29
65864;SHT30;52639;51.180;20.460;2022-12-07T23:40:37;-1.01;99.46
65864;SHT30;52639;51.180;20.460;2022-12-07T23:44:40;-1.09;98.82
65864;SHT30;52639;51.180;20.460;2022-12-07T23:48:43;-1.05;99.19
65864;SHT30;52639;51.180;20.460;2022-12-07T23:52:48;-1.05;98.74
65864;SHT30;52639;51.180;20.460;2022-12-07T23:56:50;-1.06;98.54
